Time;durP1;ratioP1;P1;durP2;ratioP2;P2;SDS_P1;SDS_P2;PMS_P1;PMS_P2;Temp;Humidity;BMP_temperature;BMP_pressure;BME280_temperature;BME280_humidity;BME280_pressure;Samples;Min_cycle;Max_cycle;Signal;HPM_P1;HPM_P2
2023/03/05 00:01:42;;;;;;;4.32;1.60;;;;;;;2.21;42.04;99940.91;5099819;28;20436;-59
2023/03/05 00:04:12;;;;;;;5.78;1.60;;;;;;;2.16;42.54;99938.28;5095714;28;20514;-59
2023/03/05 00:06:37;;;;;;;3.20;1.35;;;;;;;2.22;42.36;99932.25;5095895;28;20035;-59
2023/03/05 00:09:04;;;;;;;4.45;1.60;;;;;;;2.19;42.64;99933.13;5096675;28;20044;-59
2023/03/05 00:11:32;;;;;;;4.25;1.45;;;;;;;1.99;42.62;99932.13;5104875;28;20084;-59
2023/03/05 00:13:59;;;;;;;4.57;1.73;;;;;;;2.16;42.37;99929.66;5105803;28;20040;-60
2023/03/05 00:16:25;;;;;;;5.95;1.98;;;;;;;2.04;42.79;99922.69;5102661;28;20036;-58
2023/03/05 00:18:53;;;;;;;4.55;1.60;;;;;;;2.09;42.59;99920.09;5108300;28;20044;-58
2023/03/05 00:21:21;;;;;;;6.13;1.80;;;;;;;2.00;42.81;99914.88;5095463;28;20407;-58
2023/03/05 00:23:46;;;;;;;5.85;2.00;;;;;;;2.18;42.47;99915.81;5094182;28;20119;-58
2023/03/05 00:26:12;;;;;;;4.78;1.38;;;;;;;2.16;42.69;99909.78;5093162;28;20119;-59
2023/03/05 00:28:37;;;;;;;3.92;1.40;;;;;;;2.10;42.81;99920.09;5092667;28;20032;-59
2023/03/05 00:31:04;;;;;;;3.38;1.25;;;;;;;2.15;42.79;99912.34;5096664;28;20450;-58
2023/03/05 00:33:29;;;;;;;3.92;1.60;;;;;;;2.13;42.71;99912.34;5095469;28;20040;-59
2023/03/05 00:35:55;;;;;;;3.17;1.40;;;;;;;2.01;43.12;99914.88;5094967;28;20039;-58
2023/03/05 00:38:21;;;;;;;4.38;1.45;;;;;;;2.10;43.06;99912.31;5107282;28;20043;-58
2023/03/05 00:40:49;;;;;;;2.83;1.30;;;;;;;2.08;42.79;99908.88;5108151;28;20032;-58
2023/03/05 00:43:15;;;;;;;5.00;1.90;;;;;;;2.03;42.68;99900.19;5106850;28;20081;-58
2023/03/05 00:45:40;;;;;;;5.63;2.00;;;;;;;2.07;43.16;99895.88;5105752;28;20036;-59
2023/03/05 00:48:06;;;;;;;5.07;1.83;;;;;;;1.90;43.45;99895.81;5097401;28;20034;-58
2023/03/05 00:50:31;;;;;;;4.85;1.40;;;;;;;2.00;43.23;99899.34;5099234;28;20048;-59
2023/03/05 00:52:57;;;;;;;4.15;1.40;;;;;;;1.99;43.24;99901.03;5092374;28;20052;-59
2023/03/05 00:55:22;;;;;;;5.60;1.75;;;;;;;2.00;43.25;99895.00;5087406;28;20040;-59
2023/03/05 00:57:47;;;;;;;4.50;1.80;;;;;;;2.00;43.22;99886.38;5104547;28;20455;-58
2023/03/05 01:00:14;;;;;;;3.60;1.50;;;;;;;1.96;43.35;99886.34;5108387;28;20182;-59
2023/03/05 01:02:40;;;;;;;4.35;1.90;;;;;;;1.85;43.66;99885.41;5099202;28;20039;-59
2023/03/05 01:05:06;;;;;;;3.45;1.52;;;;;;;1.91;43.55;99881.97;5096517;28;20032;-59
2023/03/05 01:07:31;;;;;;;5.07;1.60;;;;;;;1.80;43.55;99881.09;5092435;28;20040;-58
2023/03/05 01:09:57;;;;;;;6.53;1.98;;;;;;;1.89;43.56;99884.56;5107990;28;20122;-60
2023/03/05 01:12:22;;;;;;;6.30;1.67;;;;;;;1.86;43.41;99879.38;5098002;28;20461;-58
2023/03/05 01:14:47;;;;;;;3.50;1.40;;;;;;;1.74;43.96;99894.84;5096370;28;20046;-58
2023/03/05 01:17:13;;;;;;;3.35;1.23;;;;;;;1.64;44.16;99888.75;5095076;28;20036;-59
2023/03/05 01:19:38;;;;;;;6.03;1.52;;;;;;;1.73;44.09;99882.75;5093842;28;20546;-58
2023/03/05 01:22:04;;;;;;;4.95;1.58;;;;;;;1.83;43.67;99878.47;5089850;28;20044;-58
2023/03/05 01:24:30;;;;;;;4.55;1.35;;;;;;;1.91;43.85;99877.66;5093214;28;20115;-58
2023/03/05 01:26:56;;;;;;;5.22;1.50;;;;;;;1.90;43.59;99878.53;5098536;28;20303;-58
2023/03/05 01:29:22;;;;;;;3.05;1.25;;;;;;;1.73;44.40;99875.84;5105207;28;20498;-58
2023/03/05 01:31:47;;;;;;;4.15;1.65;;;;;;;1.84;44.02;99872.47;5113444;28;20046;-59
2023/03/05 01:34:13;;;;;;;3.67;1.55;;;;;;;2.00;43.74;99869.09;5109826;28;20044;-58
2023/03/05 01:36:40;;;;;;;5.00;1.58;;;;;;;1.58;45.53;99865.38;5113154;27;20032;-58
2023/03/05 01:39:06;;;;;;;6.00;1.75;;;;;;;1.98;44.14;99863.03;5111641;28;20086;-58
2023/03/05 01:41:32;;;;;;;4.22;1.50;;;;;;;1.81;44.71;99855.16;5103628;28;20055;-58
2023/03/05 01:43:59;;;;;;;3.83;1.48;;;;;;;1.77;45.13;99861.19;5098589;28;20036;-58
2023/03/05 01:46:27;;;;;;;4.32;1.70;;;;;;;1.85;45.11;99856.06;5099087;28;20059;-58
2023/03/05 01:49:14;;;;;;;3.90;1.52;;;;;;;1.87;44.97;99850.00;5099044;28;20040;-58
2023/03/05 01:52:01;;;;;;;4.10;1.60;;;;;;;1.92;45.03;99847.47;5093733;28;20063;-58
2023/03/05 01:54:46;;;;;;;4.45;1.55;;;;;;;1.69;45.67;99839.56;5101082;28;20032;-59
2023/03/05 01:57:35;;;;;;;3.67;1.73;;;;;;;1.57;46.42;99830.00;5098065;28;20043;-59
2023/03/05 02:00:10;;;;;;;3.22;1.70;;;;;;;1.62;46.08;99837.78;5104450;28;20538;-59
2023/03/05 02:02:36;;;;;;;3.50;1.60;;;;;;;1.58;45.92;99836.91;5098196;28;20111;-58
2023/03/05 02:05:07;;;;;;;2.63;1.30;;;;;;;1.70;45.45;99831.78;5101693;28;20119;-59
2023/03/05 02:07:32;;;;;;;5.30;1.65;;;;;;;1.60;46.48;99845.56;5096462;28;20051;-58
2023/03/05 02:09:58;;;;;;;3.63;1.63;;;;;;;1.54;46.12;99834.28;5096449;28;20471;-58
2023/03/05 02:12:24;;;;;;;4.30;1.35;;;;;;;1.61;45.96;99836.06;5102800;28;20089;-59
2023/03/05 02:14:57;;;;;;;2.78;1.45;;;;;;;1.64;45.87;99839.53;5109720;28;20058;-58
2023/03/05 02:17:25;;;;;;;5.18;1.50;;;;;;;1.77;45.72;99842.19;5096849;28;20085;-58
2023/03/05 02:19:54;;;;;;;3.60;1.50;;;;;;;1.75;45.82;99838.72;5091121;28;20035;-58
2023/03/05 02:22:22;;;;;;;4.18;1.20;;;;;;;1.73;45.54;99828.38;5096812;28;20032;-59
2023/03/05 02:24:48;;;;;;;2.97;1.30;;;;;;;1.89;45.36;99822.41;5096978;28;20039;-58
2023/03/05 02:27:14;;;;;;;2.13;1.15;;;;;;;1.94;45.02;99822.41;5099081;28;20403;-58
2023/03/05 02:29:44;;;;;;;2.70;0.85;;;;;;;1.99;45.25;99828.47;5096673;28;20032;-58
2023/03/05 02:32:11;;;;;;;3.95;1.23;;;;;;;2.06;45.04;99817.28;5110707;28;20059;-58
2023/03/05 02:34:37;;;;;;;4.55;1.60;;;;;;;2.09;45.07;99827.66;5102149;28;20081;-58
2023/03/05 02:37:03;;;;;;;5.00;1.52;;;;;;;1.99;45.27;99812.91;5106154;28;20580;-58
2023/03/05 02:39:30;;;;;;;4.07;1.48;;;;;;;1.97;45.36;99814.66;5110639;28;20135;-58
2023/03/05 02:41:56;;;;;;;5.53;1.70;;;;;;;1.97;45.55;99820.69;5102936;28;20051;-57
2023/03/05 02:44:21;;;;;;;5.63;1.70;;;;;;;1.94;45.76;99804.28;5102038;28;20371;-58
2023/03/05 02:46:47;;;;;;;3.10;1.30;;;;;;;1.91;45.76;99799.06;5090204;28;20066;-58
2023/03/05 02:49:13;;;;;;;4.72;1.48;;;;;;;1.65;46.58;99807.59;5094071;28;20040;-58
2023/03/05 02:51:38;;;;;;;3.58;1.30;;;;;;;1.68;46.85;99802.44;5095455;28;20044;-58
2023/03/05 02:54:04;;;;;;;5.05;1.63;;;;;;;1.68;46.84;99799.84;5105938;28;20042;-59
2023/03/05 02:56:29;;;;;;;3.28;1.48;;;;;;;1.79;46.32;99786.06;5111742;28;20047;-59
2023/03/05 02:58:55;;;;;;;4.00;1.63;;;;;;;1.78;46.65;99782.63;5110815;28;20071;-59
2023/03/05 03:01:20;;;;;;;4.25;1.25;;;;;;;1.75;46.62;99771.38;5110194;28;20051;-58
2023/03/05 03:03:46;;;;;;;4.97;1.38;;;;;;;1.61;47.00;99777.38;5107790;28;20020;-58
2023/03/05 03:06:11;;;;;;;6.40;2.00;;;;;;;1.63;47.22;99770.44;5107815;28;20031;-58
2023/03/05 03:08:37;;;;;;;3.90;1.65;;;;;;;1.65;47.08;99767.88;5107988;28;20483;-58
2023/03/05 03:11:04;;;;;;;6.90;2.10;;;;;;;1.73;47.00;99759.28;5095219;28;20495;-58
2023/03/05 03:13:30;;;;;;;4.18;1.73;;;;;;;1.66;47.41;99757.53;5102679;28;20123;-58
2023/03/05 03:16:07;;;;;;;3.97;1.63;;;;;;;1.54;48.68;99756.59;5087112;28;20194;-57
2023/03/05 03:18:33;;;;;;;4.88;1.77;;;;;;;1.69;47.36;99744.59;5095300;28;20047;-58
2023/03/05 03:20:58;;;;;;;5.45;1.85;;;;;;;1.77;47.28;99746.34;5093627;28;20036;-58
2023/03/05 03:23:24;;;;;;;3.28;1.42;;;;;;;1.70;47.48;99735.09;5097413;28;20028;-58
2023/03/05 03:25:49;;;;;;;3.92;1.60;;;;;;;1.63;48.05;99741.09;5102782;28;20040;-57
2023/03/05 03:28:15;;;;;;;4.43;1.63;;;;;;;1.53;48.70;99745.38;5107357;28;20055;-58
2023/03/05 03:30:40;;;;;;;6.40;1.80;;;;;;;1.55;48.54;99735.03;5098998;28;20085;-59
2023/03/05 03:33:06;;;;;;;5.25;1.55;;;;;;;1.74;47.94;99736.84;5096755;28;20043;-58
2023/03/05 03:35:32;;;;;;;4.60;1.73;;;;;;;1.68;48.33;99744.59;5096119;28;20039;-58
2023/03/05 03:37:57;;;;;;;5.43;1.85;;;;;;;1.54;48.69;99746.25;5098895;28;20031;-58
2023/03/05 03:40:23;;;;;;;5.50;1.70;;;;;;;1.59;48.34;99742.81;5107874;28;20085;-59
2023/03/05 03:42:50;;;;;;;5.60;1.83;;;;;;;1.34;49.84;99730.63;5089421;28;20035;-58
2023/03/05 03:45:16;;;;;;;4.40;1.63;;;;;;;1.43;49.11;99730.66;5097972;28;20055;-58
2023/03/05 03:47:41;;;;;;;4.05;1.33;;;;;;;1.67;48.52;99723.00;5094894;28;20443;-58
2023/03/05 03:50:08;;;;;;;6.82;1.63;;;;;;;1.72;48.31;99712.69;5098733;28;20544;-58
2023/03/05 03:52:33;;;;;;;5.75;1.75;;;;;;;1.76;48.45;99708.38;5110503;28;20035;-58
2023/03/05 03:55:00;;;;;;;5.75;1.70;;;;;;;1.83;48.24;99704.91;5108317;28;20042;-58
2023/03/05 03:57:29;;;;;;;5.85;1.60;;;;;;;1.59;49.27;99706.56;5095940;28;20075;-58
2023/03/05 03:59:55;;;;;;;6.43;1.83;;;;;;;1.49;49.66;99699.63;5098691;28;20428;-58
2023/03/05 04:02:21;;;;;;;6.43;1.60;;;;;;;1.31;50.19;99692.63;5100870;28;20036;-58
2023/03/05 04:04:47;;;;;;;5.60;1.60;;;;;;;1.56;49.42;99691.03;5104444;28;20027;-58
2023/03/05 04:07:12;;;;;;;5.38;1.60;;;;;;;1.54;49.57;99700.50;5108739;28;20388;-58
2023/03/05 04:09:38;;;;;;;5.75;1.98;;;;;;;1.49;49.53;99712.56;5094167;28;20036;-58
2023/03/05 04:12:03;;;;;;;2.65;1.42;;;;;;;1.49;50.14;99712.56;5090318;28;20109;-58
2023/03/05 04:14:29;;;;;;;4.95;1.77;;;;;;;1.67;49.37;99704.84;5094454;28;20051;-57
2023/03/05 04:16:54;;;;;;;3.63;1.38;;;;;;;1.66;49.63;99704.88;5095628;28;20492;-58
2023/03/05 04:19:20;;;;;;;4.43;1.48;;;;;;;1.61;49.94;99691.03;5097225;28;20028;-58
2023/03/05 04:21:45;;;;;;;3.30;1.35;;;;;;;1.56;50.02;99698.81;5109165;28;20360;-58
2023/03/05 04:24:11;;;;;;;5.30;1.98;;;;;;;1.38;51.15;99706.47;5108628;28;20046;-59
2023/03/05 04:26:36;;;;;;;3.95;1.40;;;;;;;1.48;50.65;99697.91;5099460;28;20406;-59
2023/03/05 04:29:02;;;;;;;7.43;2.08;;;;;;;1.43;50.48;99700.44;5109238;28;20034;-58
2023/03/05 04:31:27;;;;;;;5.47;1.58;;;;;;;1.47;50.26;99694.44;5107540;28;20051;-58
2023/03/05 04:33:53;;;;;;;5.18;1.40;;;;;;;1.50;50.56;99696.16;5109935;28;20043;-59
2023/03/05 04:36:18;;;;;;;3.10;1.60;;;;;;;1.60;50.06;99690.19;5105303;28;20506;-58
2023/03/05 04:38:44;;;;;;;4.32;1.95;;;;;;;1.67;50.11;99689.31;5089119;28;20048;-58
2023/03/05 04:41:09;;;;;;;6.30;2.22;;;;;;;1.58;50.22;99680.66;5091659;28;20063;-58
2023/03/05 04:43:35;;;;;;;5.78;1.70;;;;;;;1.78;49.66;99675.56;5100955;28;20035;-58
2023/03/05 04:46:00;;;;;;;6.60;1.63;;;;;;;1.93;49.50;99673.00;5106417;28;20036;-58
2023/03/05 04:48:25;;;;;;;3.90;1.40;;;;;;;1.48;50.84;99665.13;5107208;28;20043;-58
2023/03/05 04:50:51;;;;;;;4.28;1.38;;;;;;;1.84;49.69;99663.50;5094424;28;20051;-58
2023/03/05 04:53:16;;;;;;;6.40;1.50;;;;;;;1.55;50.92;99673.75;5096352;28;20431;-58
2023/03/05 04:55:42;;;;;;;4.22;1.30;;;;;;;1.83;49.88;99669.50;5095444;28;20060;-58
2023/03/05 04:58:08;;;;;;;3.95;1.33;;;;;;;1.65;50.34;99666.88;5095851;28;20055;-59
2023/03/05 05:00:34;;;;;;;4.85;1.02;;;;;;;1.86;49.80;99666.94;5106271;28;20059;-58
2023/03/05 05:03:00;;;;;;;3.42;1.20;;;;;;;1.84;50.03;99667.81;5113132;28;20106;-58
2023/03/05 05:05:28;;;;;;;1.92;0.80;;;;;;;1.94;49.73;99664.34;5111622;28;20419;-58
2023/03/05 05:07:55;;;;;;;3.75;1.10;;;;;;;2.16;48.96;99671.31;5105414;28;20402;-58
2023/03/05 05:10:21;;;;;;;2.83;0.90;;;;;;;2.18;49.33;99664.38;5100196;28;20032;-58
2023/03/05 05:12:47;;;;;;;4.63;1.35;;;;;;;2.16;49.34;99654.91;5098972;28;20035;-58
2023/03/05 05:15:12;;;;;;;3.28;1.08;;;;;;;2.35;48.94;99661.78;5097589;28;20051;-58
2023/03/05 05:17:39;;;;;;;4.45;1.20;;;;;;;2.36;49.10;99658.38;5099123;28;20093;-59
2023/03/05 05:20:05;;;;;;;4.63;1.40;;;;;;;2.43;48.49;99657.50;5115654;28;20053;-58
2023/03/05 05:22:32;;;;;;;4.05;1.33;;;;;;;2.54;48.44;99659.22;5099683;28;20110;-58
2023/03/05 05:24:57;;;;;;;2.40;1.10;;;;;;;2.43;48.52;99654.03;5113248;28;20547;-58
2023/03/05 05:27:23;;;;;;;3.70;1.30;;;;;;;2.41;48.62;99651.44;5117181;28;20039;-59
2023/03/05 05:29:51;;;;;;;2.88;1.10;;;;;;;2.24;49.04;99662.69;5108942;28;20035;-58
2023/03/05 05:32:18;;;;;;;3.80;1.25;;;;;;;2.40;48.89;99665.28;5108206;28;20459;-61
2023/03/05 05:34:44;;;;;;;5.10;1.40;;;;;;;2.48;48.67;99667.88;5109109;28;20035;-58
2023/03/05 05:37:09;;;;;;;4.47;1.23;;;;;;;2.54;48.58;99667.84;5115672;28;20399;-58
2023/03/05 05:39:35;;;;;;;4.53;1.40;;;;;;;2.76;48.08;99667.84;5106911;28;20044;-58
2023/03/05 05:42:00;;;;;;;2.75;1.20;;;;;;;2.64;48.19;99669.59;5105651;28;20111;-58
2023/03/05 05:44:26;;;;;;;4.65;1.40;;;;;;;2.48;48.92;99665.28;5112558;28;20047;-58
2023/03/05 05:46:52;;;;;;;4.53;1.13;;;;;;;2.50;48.38;99660.94;5095014;28;20028;-58
2023/03/05 05:49:17;;;;;;;1.90;0.90;;;;;;;2.53;48.43;99679.09;5095076;28;20464;-59
2023/03/05 05:51:43;;;;;;;2.45;0.90;;;;;;;2.56;48.41;99666.13;5086898;28;20059;-58
2023/03/05 05:54:11;;;;;;;3.20;1.13;;;;;;;2.46;48.67;99659.22;5107470;28;20031;-58
2023/03/05 05:56:37;;;;;;;6.22;1.15;;;;;;;2.31;48.85;99660.06;5097944;28;20032;-58
2023/03/05 05:59:02;;;;;;;3.30;0.95;;;;;;;2.13;49.42;99670.44;5114918;28;20066;-59
2023/03/05 06:01:31;;;;;;;1.52;0.70;;;;;;;2.33;49.02;99657.50;5115692;28;20048;-58
2023/03/05 06:03:58;;;;;;;4.18;1.00;;;;;;;2.24;49.15;99655.78;5116265;28;20085;-59
2023/03/05 06:06:24;;;;;;;2.75;1.00;;;;;;;2.24;49.35;99660.09;5101807;28;20040;-58
2023/03/05 06:08:50;;;;;;;2.50;0.75;;;;;;;2.27;49.08;99658.34;5102097;28;20028;-58
2023/03/05 06:11:16;;;;;;;5.22;1.30;;;;;;;2.31;49.17;99654.03;5107193;28;20035;-59
2023/03/05 06:13:42;;;;;;;2.90;1.10;;;;;;;2.46;48.98;99660.06;5112122;28;20433;-58
2023/03/05 06:16:12;;;;;;;3.88;1.20;;;;;;;2.51;48.80;99649.69;5114485;28;20455;-58
2023/03/05 06:18:37;;;;;;;3.05;1.30;;;;;;;2.44;49.06;99651.44;5098334;28;20085;-58
2023/03/05 06:21:11;;;;;;;5.22;1.42;;;;;;;2.34;49.56;99656.63;5096116;28;20051;-57
2023/03/05 06:23:37;;;;;;;2.00;0.73;;;;;;;2.45;49.13;99649.72;5109233;28;20471;-58
2023/03/05 06:26:05;;;;;;;3.38;0.98;;;;;;;2.62;48.86;99647.97;5110974;27;20115;-57
2023/03/05 06:28:32;;;;;;;3.10;1.02;;;;;;;2.84;48.10;99638.44;5105221;28;20036;-57
2023/03/05 06:31:02;;;;;;;3.90;1.17;;;;;;;2.69;48.65;99647.09;5110086;28;20057;-58
2023/03/05 06:33:28;;;;;;;5.60;1.92;;;;;;;2.58;49.19;99638.44;5102847;28;20035;-58
2023/03/05 06:35:53;;;;;;;4.50;1.20;;;;;;;2.79;48.80;99641.88;5101374;28;20032;-57
2023/03/05 06:38:19;;;;;;;3.80;0.98;;;;;;;2.96;48.35;99637.53;5114231;28;20047;-58
2023/03/05 06:40:44;;;;;;;4.75;1.25;;;;;;;3.09;48.22;99643.56;5089707;28;20028;-58
2023/03/05 06:43:10;;;;;;;4.35;1.00;;;;;;;2.93;48.80;99642.72;5095252;28;20032;-58
2023/03/05 06:45:35;;;;;;;3.30;0.95;;;;;;;3.21;48.27;99644.38;5095932;28;20028;-57
2023/03/05 06:48:00;;;;;;;2.83;1.15;;;;;;;3.26;48.36;99644.34;5106312;28;20765;-58
2023/03/05 06:50:26;;;;;;;8.35;1.55;;;;;;;3.25;48.34;99636.56;5114098;28;20062;-58
2023/03/05 06:52:51;;;;;;;3.13;0.98;;;;;;;3.35;48.14;99640.84;5103871;28;20031;-57
2023/03/05 06:55:18;;;;;;;3.63;1.15;;;;;;;3.17;49.00;99644.38;5094781;28;20054;-57
2023/03/05 06:57:44;;;;;;;3.60;1.15;;;;;;;3.48;48.03;99647.72;5094573;28;20032;-56
2023/03/05 07:00:13;;;;;;;2.67;1.15;;;;;;;3.45;47.98;99634.75;5100670;28;20108;-58
2023/03/05 07:02:38;;;;;;;4.30;1.27;;;;;;;3.57;48.01;99645.06;5106505;28;20044;-56
2023/03/05 07:05:06;;;;;;;7.30;1.50;;;;;;;3.33;48.64;99647.78;5094801;28;20119;-58
2023/03/05 07:07:32;;;;;;;5.25;1.58;;;;;;;3.65;47.85;99642.44;5092998;28;20467;-58
2023/03/05 07:09:58;;;;;;;5.22;1.40;;;;;;;3.47;48.25;99643.38;5094958;28;20175;-58
2023/03/05 07:12:23;;;;;;;6.65;1.70;;;;;;;3.42;48.53;99630.41;5094815;28;20078;-58
2023/03/05 07:14:49;;;;;;;4.10;1.45;;;;;;;3.82;47.74;99639.75;5098071;28;20527;-58
2023/03/05 07:17:14;;;;;;;4.57;1.58;;;;;;;3.94;47.52;99640.53;5103234;28;20031;-59
2023/03/05 07:19:40;;;;;;;3.38;1.63;;;;;;;4.07;47.61;99641.31;5112108;28;20390;-58
2023/03/05 07:22:07;;;;;;;3.60;1.60;;;;;;;4.07;47.40;99625.72;5093192;28;20451;-56
2023/03/05 07:24:32;;;;;;;6.28;1.65;;;;;;;3.95;47.69;99631.00;5105780;28;20062;-57
2023/03/05 07:26:58;;;;;;;3.70;1.35;;;;;;;4.15;47.47;99634.34;5098875;28;20058;-59
2023/03/05 07:29:26;;;;;;;5.13;2.78;;;;;;;3.78;48.10;99643.22;5094242;28;20161;-57
2023/03/05 07:31:52;;;;;;;5.50;1.63;;;;;;;4.27;47.17;99633.38;5102202;28;20039;-57
2023/03/05 07:34:17;;;;;;;4.13;1.45;;;;;;;3.94;47.95;99643.13;5103518;28;20051;-58
2023/03/05 07:36:43;;;;;;;3.92;1.50;;;;;;;4.06;47.83;99623.97;5101027;28;20507;-57
2023/03/05 07:39:10;;;;;;;3.70;1.65;;;;;;;4.36;47.22;99635.03;5096856;28;20107;-57
2023/03/05 07:41:36;;;;;;;2.75;1.30;;;;;;;4.14;47.86;99632.59;5095739;28;20107;-58
2023/03/05 07:44:02;;;;;;;2.83;1.17;;;;;;;4.25;47.81;99632.50;5094030;28;20061;-57
2023/03/05 07:46:30;;;;;;;4.88;1.42;;;;;;;3.88;48.88;99639.72;5094524;28;20075;-58
2023/03/05 07:48:56;;;;;;;3.05;1.30;;;;;;;4.48;47.32;99623.66;5109114;28;20035;-58
2023/03/05 07:51:24;;;;;;;2.92;1.40;;;;;;;4.29;47.97;99633.34;5114432;28;20459;-58
2023/03/05 07:53:51;;;;;;;5.25;1.65;;;;;;;4.90;46.83;99630.16;5097618;28;20479;-58
2023/03/05 07:56:30;;;;;;;4.72;1.55;;;;;;;5.29;46.08;99622.78;5093662;28;20434;-59
2023/03/05 07:59:10;;;;;;;5.90;1.30;;;;;;;4.70;47.30;99632.97;5100639;28;20374;-57
2023/03/05 08:01:36;;;;;;;4.57;1.90;;;;;;;5.11;46.46;99635.16;5114153;28;20027;-58
2023/03/05 08:04:03;;;;;;;4.88;2.45;;;;;;;5.30;46.03;99621.91;5096029;28;20471;-58
2023/03/05 08:06:29;;;;;;;2.75;1.42;;;;;;;4.91;46.83;99624.97;5104099;28;20046;-58
2023/03/05 08:08:55;;;;;;;2.53;1.50;;;;;;;5.29;46.05;99618.44;5101575;28;20040;-58
2023/03/05 08:11:20;;;;;;;3.80;1.00;;;;;;;5.41;45.87;99625.25;5104028;28;20038;-58
2023/03/05 08:13:46;;;;;;;2.67;1.30;;;;;;;5.24;46.26;99629.81;5092808;28;20043;-58
2023/03/05 08:16:17;;;;;;;9.10;3.92;;;;;;;4.78;47.16;99619.88;5092258;28;20077;-58
2023/03/05 08:18:43;;;;;;;10.75;6.90;;;;;;;4.88;46.96;99611.13;5093669;28;20103;-58
2023/03/05 08:21:28;;;;;;;6.65;3.17;;;;;;;4.96;46.81;99622.31;5104830;28;20092;-58
2023/03/05 08:23:57;;;;;;;2.97;1.42;;;;;;;5.08;46.56;99613.50;5100661;28;20422;-59
2023/03/05 08:26:25;;;;;;;4.95;1.35;;;;;;;4.95;47.11;99602.38;5095908;28;20032;-58
2023/03/05 08:28:51;;;;;;;4.35;1.20;;;;;;;4.75;47.17;99607.78;5098846;28;20395;-58
2023/03/05 08:31:20;;;;;;;3.75;1.17;;;;;;;4.88;46.69;99598.97;5106905;28;20093;-57
2023/03/05 08:33:47;;;;;;;6.13;1.25;;;;;;;5.02;46.35;99604.00;5098133;28;20036;-59
2023/03/05 08:36:13;;;;;;;3.03;1.02;;;;;;;5.35;45.80;99601.91;5100143;28;20028;-58
2023/03/05 08:38:38;;;;;;;2.30;0.82;;;;;;;5.09;46.08;99599.59;5101751;28;20059;-59
2023/03/05 08:41:04;;;;;;;3.53;1.20;;;;;;;5.13;46.10;99596.06;5097498;28;20137;-58
2023/03/05 08:43:30;;;;;;;2.60;1.13;;;;;;;5.31;45.69;99595.84;5105845;28;20059;-58
2023/03/05 08:45:56;;;;;;;4.43;1.40;;;;;;;5.42;45.66;99593.09;5099547;28;20058;-58
2023/03/05 08:48:22;;;;;;;6.05;1.33;;;;;;;5.27;45.55;99591.56;5107408;28;20063;-58
2023/03/05 08:50:48;;;;;;;3.53;1.42;;;;;;;5.24;45.82;99604.63;5102486;28;20060;-59
2023/03/05 08:53:14;;;;;;;3.50;1.10;;;;;;;5.18;46.00;99600.34;5109332;28;20055;-58
2023/03/05 08:55:39;;;;;;;4.13;1.00;;;;;;;4.99;45.86;99601.47;5099965;28;20467;-58
2023/03/05 08:58:05;;;;;;;4.82;1.67;;;;;;;4.88;46.01;99600.72;5113826;28;20536;-58
2023/03/05 09:00:30;;;;;;;5.88;1.67;;;;;;;5.03;46.26;99605.75;5103011;28;20055;-59
2023/03/05 09:02:56;;;;;;;5.18;1.60;;;;;;;5.07;45.72;99609.19;5116472;28;20027;-58
2023/03/05 09:05:21;;;;;;;3.78;1.10;;;;;;;4.87;45.71;99609.41;5105886;28;20039;-59
2023/03/05 09:07:47;;;;;;;1.85;0.77;;;;;;;5.01;44.85;99607.50;5102692;28;20085;-59
2023/03/05 09:10:13;;;;;;;4.43;1.02;;;;;;;5.39;44.60;99587.94;5096036;28;20115;-59
2023/03/05 09:12:40;;;;;;;2.65;0.77;;;;;;;4.95;43.73;99586.75;5108470;28;20077;-59
2023/03/05 09:15:08;;;;;;;1.88;0.73;;;;;;;5.36;43.68;99591.44;5096816;28;20475;-59
2023/03/05 09:17:35;;;;;;;2.00;0.77;;;;;;;5.70;43.48;99585.75;5097039;28;20066;-59
2023/03/05 09:20:02;;;;;;;2.80;1.10;;;;;;;5.66;43.66;99587.56;5096587;28;20039;-58
2023/03/05 09:22:28;;;;;;;2.83;1.00;;;;;;;5.71;43.74;99586.63;5102296;28;20030;-59
2023/03/05 09:24:53;;;;;;;5.20;0.90;;;;;;;5.77;43.25;99590.00;5094360;28;20032;-59
2023/03/05 09:27:19;;;;;;;1.70;0.82;;;;;;;5.77;43.23;99578.72;5096625;28;20032;-59
2023/03/05 09:29:44;;;;;;;3.10;1.20;;;;;;;6.20;42.59;99591.13;5096749;28;20132;-59
2023/03/05 09:32:10;;;;;;;3.80;1.45;;;;;;;6.53;42.36;99577.47;5100232;28;20035;-59
2023/03/05 09:34:35;;;;;;;4.07;1.20;;;;;;;6.53;42.16;99593.16;5114296;28;20040;-59
2023/03/05 09:37:02;;;;;;;2.88;0.82;;;;;;;6.41;42.25;99570.72;5112412;28;20063;-58
2023/03/05 09:39:27;;;;;;;2.10;0.50;;;;;;;6.50;41.32;99574.91;5099565;28;20048;-58
2023/03/05 09:42:30;;;;;;;4.10;1.42;;;;;;;6.69;41.31;99578.06;5096423;28;20081;-58
2023/03/05 09:45:19;;;;;;;2.85;0.95;;;;;;;6.57;41.03;99573.06;5101403;28;20106;-58
2023/03/05 09:48:22;;;;;;;3.20;0.77;;;;;;;6.76;40.70;99578.81;5116936;28;20024;-58
2023/03/05 09:50:53;;;;;;;3.88;1.08;;;;;;;7.48;39.38;99583.44;5098594;28;20486;-57
2023/03/05 09:53:42;;;;;;;3.13;1.20;;;;;;;7.16;39.49;99574.53;5096330;28;20035;-59
2023/03/05 09:56:31;;;;;;;4.45;1.10;;;;;;;7.44;39.55;99566.09;5099245;28;20067;-59
2023/03/05 09:59:16;;;;;;;2.95;0.88;;;;;;;8.03;38.74;99552.56;5113752;28;20471;-58
2023/03/05 10:01:43;;;;;;;3.13;0.75;;;;;;;7.91;38.64;99566.78;5115001;28;20106;-59
2023/03/05 10:04:24;;;;;;;4.18;1.00;;;;;;;8.19;38.00;99564.38;5115215;28;20523;-60
2023/03/05 10:07:14;;;;;;;3.35;1.10;;;;;;;7.90;38.74;99572.94;5113722;28;20023;-59
2023/03/05 10:09:45;;;;;;;2.10;0.82;;;;;;;7.39;36.18;99550.53;5115108;28;20028;-59
2023/03/05 10:12:19;;;;;;;2.00;0.90;;;;;;;7.82;36.30;99548.69;5115093;28;20104;-59
2023/03/05 10:14:45;;;;;;;4.75;0.93;;;;;;;7.57;37.84;99554.47;5096291;28;20036;-61
2023/03/05 10:17:46;;;;;;;2.78;0.82;;;;;;;7.93;37.36;99556.28;5110543;28;20080;-59
2023/03/05 10:20:41;;;;;;;4.28;1.02;;;;;;;8.20;38.01;99546.91;5115088;28;20040;-59
2023/03/05 10:23:07;;;;;;;2.78;0.98;;;;;;;8.11;38.09;99555.84;5088561;28;20043;-58
2023/03/05 10:25:35;;;;;;;2.00;0.90;;;;;;;8.00;38.29;99552.63;5094879;28;20097;-61
2023/03/05 10:28:08;;;;;;;4.38;1.10;;;;;;;7.88;38.61;99554.63;5114556;28;20426;-60
2023/03/05 10:31:15;;;;;;;10.75;3.50;;;;;;;8.03;34.54;99553.41;5105963;28;20035;-59
2023/03/05 10:33:59;;;;;;;15.65;5.60;;;;;;;7.94;33.29;99548.41;5095396;28;20032;-59
2023/03/05 10:36:56;;;;;;;10.80;4.35;;;;;;;7.99;33.55;99550.91;5095305;28;20039;-60
2023/03/05 10:39:40;;;;;;;7.05;3.13;;;;;;;7.19;32.93;99546.63;5095073;28;20051;-59
2023/03/05 10:42:24;;;;;;;8.13;2.58;;;;;;;7.55;32.09;99540.59;5095230;28;20032;-59
2023/03/05 10:44:55;;;;;;;3.33;1.58;;;;;;;7.81;33.17;99541.72;5095151;28;20459;-59
2023/03/05 10:47:26;;;;;;;4.10;1.50;;;;;;;8.16;32.15;99530.41;5094304;28;20024;-59
2023/03/05 10:49:55;;;;;;;4.20;1.73;;;;;;;8.41;32.06;99533.28;5093059;28;20122;-58
2023/03/05 10:52:35;;;;;;;2.95;1.08;;;;;;;8.64;31.46;99530.91;5089895;28;20080;-59
2023/03/05 10:55:02;;;;;;;3.38;1.05;;;;;;;8.09;32.81;99521.84;5112347;28;20039;-59
2023/03/05 10:57:30;;;;;;;3.38;1.13;;;;;;;8.30;32.02;99530.94;5114353;28;20432;-60
2023/03/05 11:00:05;;;;;;;4.75;0.95;;;;;;;7.92;31.75;99550.19;5115429;27;20031;-59
2023/03/05 11:02:30;;;;;;;2.67;0.68;;;;;;;8.10;32.62;99520.13;5114188;28;20027;-59
2023/03/05 11:04:56;;;;;;;5.43;1.30;;;;;;;8.34;31.48;99518.63;5113972;28;20447;-59
2023/03/05 11:07:24;;;;;;;2.05;0.60;;;;;;;8.00;31.17;99536.94;5115098;28;20023;-60
2023/03/05 11:09:59;;;;;;;2.65;0.85;;;;;;;8.04;29.35;99517.66;5114945;28;20040;-59
2023/03/05 11:12:36;;;;;;;2.17;1.10;;;;;;;8.61;29.84;99515.28;5113965;28;20036;-58
2023/03/05 11:15:10;;;;;;;1.67;0.63;;;;;;;8.94;29.36;99515.25;5115326;28;20050;-60
2023/03/05 11:17:42;;;;;;;5.18;1.15;;;;;;;8.39;30.69;99525.47;5113907;28;20031;-59
2023/03/05 11:20:25;;;;;;;6.22;2.38;;;;;;;8.04;29.24;99513.25;5093089;28;20058;-59
2023/03/05 11:23:11;;;;;;;4.95;2.10;;;;;;;7.40;30.11;99530.47;5094264;28;20043;-58
2023/03/05 11:25:50;;;;;;;4.13;1.15;;;;;;;7.15;30.72;99525.78;5094188;28;20058;-59
2023/03/05 11:28:20;;;;;;;3.53;1.52;;;;;;;7.15;30.11;99514.50;5093280;28;20122;-60
2023/03/05 11:31:23;;;;;;;3.95;1.45;;;;;;;7.50;29.02;99510.22;5094848;28;20107;-59
2023/03/05 11:34:24;;;;;;;10.50;3.83;;;;;;;7.80;28.55;99514.72;5094431;28;20032;-60
2023/03/05 11:36:51;;;;;;;7.07;1.75;;;;;;;8.10;29.37;99497.44;5092954;28;20044;-61
2023/03/05 11:39:21;;;;;;;4.72;1.70;;;;;;;8.20;28.97;99503.28;5092892;28;20050;-59
2023/03/05 11:41:57;;;;;;;7.40;2.28;;;;;;;8.53;27.93;99506.78;5094053;28;20036;-59
2023/03/05 11:44:33;;;;;;;3.75;1.10;;;;;;;8.62;28.60;99490.84;5094666;28;20028;-59
2023/03/05 11:47:08;;;;;;;5.00;1.40;;;;;;;8.93;28.89;99487.31;5092442;28;20483;-59
2023/03/05 11:49:42;;;;;;;6.53;2.25;;;;;;;8.65;27.41;99513.44;5092399;28;20024;-59